Delmar, NY (12054)

7:25 AM EDT on July 25, 2016 (GMT -0400)
Slingerlands - Delmar | | Change Station

Elev 256 ft 42.62 °N, 73.86 °W | Updated 3 seconds ago

Mostly Cloudy
Mostly Cloudy
69.4 °F
Feels Like 69.4 °F
N
0.0
Wind Variable Wind from SW
Gusts 0.0 mph

Today
High -- | Low -- °F
--% Chance of Precip.
Yesterday
High -- | Low -- °F
Precip. -- in
Pressure 29.93 in
Visibility 10.0 miles
Clouds Scattered Clouds 14000 ft
Mostly Cloudy 26000 ft
Dew Point 64 °F
Humidity 83%
Rainfall 0.00 in
Snow Depth Not available.
5:40 AM 8:22 PM
Waning Gibbous, 67% visible
METAR KALB 251051Z 00000KT 10SM SCT140 BKN260 21/18 A2993 RMK AO2 SLP133 SCT V BKN T02060178
Pressure 29.93 in
Visibility 10.0 miles
Clouds Scattered Clouds 14000 ft
Mostly Cloudy 26000 ft
Dew Point 64 °F
Humidity 83%
Rainfall 0.00 in
Snow Depth Not available.
5:40 AM 8:22 PM
Waning Gibbous, 67% visible
METAR KALB 251051Z 00000KT 10SM SCT140 BKN260 21/18 A2993 RMK AO2 SLP133 SCT V BKN T02060178

10-Day Weather Forecast

Almanac

Astronomy

Jul. 25, 2016 Rise Set
Actual Time
Civil Twilight
Nautical Twilight
Astronomical Twilight
Moon
Length of Visible Light
Length of Day
Tomorrow will be .
, % of the Moon is Illuminated

Today's Extremes

State Highs State Lows

Community

WunderPhotos

Upload Photos

1,927,291 photos uploaded!

WunderBlog® & News

Nearby

Air Quality

  Air Quality AQ Index Pollutant
Not available.

Snow Depth

Station Depth Elevation

Earthquake Activity

City Distance Mag. Time & Date
Minimum magnitude displayed is 2.5.

Coastal Water Temperatures

Place Temperature

Stations

Nearby Weather Stations

Station Location Temp. Windchill Dew Point Humidity Wind Precip. Elev Updated Type
                   

Watches & Warnings

There are currently no watches in effect.